sensor_id;sensor_type;location;lat;lon;timestamp;pressure;altitude;pressure_sealevel;temperature;humidity
29569;BME280;16501;51.462;14.346;2023-06-22T00:01:46;100467.78;;;22.75;77.04
29569;BME280;16501;51.462;14.346;2023-06-22T00:04:11;100443.47;;;22.48;77.81
29569;BME280;16501;51.462;14.346;2023-06-22T00:06:36;100476.28;;;22.68;78.34
29569;BME280;16501;51.462;14.346;2023-06-22T00:09:01;100464.97;;;22.62;78.54
29569;BME280;16501;51.462;14.346;2023-06-22T00:11:27;100472.38;;;22.57;79.48
29569;BME280;16501;51.462;14.346;2023-06-22T00:13:52;100465.44;;;22.53;79.95
29569;BME280;16501;51.462;14.346;2023-06-22T00:16:18;100474.69;;;22.46;80.16
29569;BME280;16501;51.462;14.346;2023-06-22T00:18:43;100452.06;;;22.34;80.39
29569;BME280;16501;51.462;14.346;2023-06-22T00:21:12;100449.00;;;22.32;80.40
29569;BME280;16501;51.462;14.346;2023-06-22T00:23:37;100475.56;;;22.40;80.01
29569;BME280;16501;51.462;14.346;2023-06-22T00:26:02;100468.31;;;22.39;80.30
29569;BME280;16501;51.462;14.346;2023-06-22T00:28:28;100484.59;;;22.31;79.46
29569;BME280;16501;51.462;14.346;2023-06-22T00:30:54;100492.06;;;22.34;79.28
29569;BME280;16501;51.462;14.346;2023-06-22T00:33:19;100508.97;;;22.32;79.58
29569;BME280;16501;51.462;14.346;2023-06-22T00:35:44;100486.13;;;22.19;80.02
29569;BME280;16501;51.462;14.346;2023-06-22T00:38:10;100464.38;;;22.02;79.91
29569;BME280;16501;51.462;14.346;2023-06-22T00:40:35;100487.34;;;22.10;79.98
29569;BME280;16501;51.462;14.346;2023-06-22T00:43:03;100502.69;;;22.07;80.81
29569;BME280;16501;51.462;14.346;2023-06-22T00:45:28;100500.50;;;22.00;80.85
29569;BME280;16501;51.462;14.346;2023-06-22T00:47:57;100492.28;;;21.96;80.48
29569;BME280;16501;51.462;14.346;2023-06-22T00:50:26;100501.50;;;22.02;80.61
29569;BME280;16501;51.462;14.346;2023-06-22T00:52:53;100505.22;;;21.97;80.79
29569;BME280;16501;51.462;14.346;2023-06-22T00:55:22;100499.41;;;21.90;80.49
29569;BME280;16501;51.462;14.346;2023-06-22T00:57:47;100500.81;;;21.83;80.78
29569;BME280;16501;51.462;14.346;2023-06-22T01:00:14;100520.16;;;21.90;81.10
29569;BME280;16501;51.462;14.346;2023-06-22T01:02:41;100520.25;;;21.84;81.58
29569;BME280;16501;51.462;14.346;2023-06-22T01:05:09;100501.16;;;21.79;81.07
29569;BME280;16501;51.462;14.346;2023-06-22T01:07:39;100481.03;;;21.58;81.42
29569;BME280;16501;51.462;14.346;2023-06-22T01:10:32;100512.88;;;21.76;81.37
29569;BME280;16501;51.462;14.346;2023-06-22T01:13:07;100504.97;;;21.69;82.06
29569;BME280;16501;51.462;14.346;2023-06-22T01:15:39;100498.47;;;21.68;82.19
29569;BME280;16501;51.462;14.346;2023-06-22T01:18:05;100504.72;;;21.66;81.92
29569;BME280;16501;51.462;14.346;2023-06-22T01:20:34;100503.44;;;21.68;81.69
29569;BME280;16501;51.462;14.346;2023-06-22T01:25:46;100509.09;;;21.54;82.26
29569;BME280;16501;51.462;14.346;2023-06-22T01:28:47;100509.88;;;21.55;82.61
29569;BME280;16501;51.462;14.346;2023-06-22T01:31:07;100485.31;;;21.33;83.10
29569;BME280;16501;51.462;14.346;2023-06-22T01:33:36;100493.56;;;21.36;83.38
29569;BME280;16501;51.462;14.346;2023-06-22T01:36:03;100512.59;;;21.47;83.52
29569;BME280;16501;51.462;14.346;2023-06-22T01:38:29;100515.19;;;21.45;83.55
29569;BME280;16501;51.462;14.346;2023-06-22T01:40:57;100521.97;;;21.42;83.36
29569;BME280;16501;51.462;14.346;2023-06-22T01:43:24;100525.94;;;21.39;83.70
29569;BME280;16501;51.462;14.346;2023-06-22T01:45:50;100522.63;;;21.35;83.99
29569;BME280;16501;51.462;14.346;2023-06-22T01:48:16;100511.25;;;21.16;84.79
29569;BME280;16501;51.462;14.346;2023-06-22T01:50:43;100520.13;;;21.12;85.92
29569;BME280;16501;51.462;14.346;2023-06-22T01:53:08;100527.28;;;21.19;86.61
29569;BME280;16501;51.462;14.346;2023-06-22T01:55:36;100510.81;;;21.12;86.80
29569;BME280;16501;51.462;14.346;2023-06-22T01:58:01;100527.38;;;21.13;86.41
29569;BME280;16501;51.462;14.346;2023-06-22T02:00:28;100512.09;;;21.10;85.87
29569;BME280;16501;51.462;14.346;2023-06-22T02:02:59;100511.13;;;21.08;86.04
29569;BME280;16501;51.462;14.346;2023-06-22T02:05:38;100491.56;;;20.99;86.24
29569;BME280;16501;51.462;14.346;2023-06-22T02:08:13;100507.81;;;21.04;86.29
29569;BME280;16501;51.462;14.346;2023-06-22T02:10:41;100496.56;;;20.93;86.15
29569;BME280;16501;51.462;14.346;2023-06-22T02:13:09;100504.03;;;20.96;86.08
29569;BME280;16501;51.462;14.346;2023-06-22T02:15:35;100513.91;;;20.95;85.97
29569;BME280;16501;51.462;14.346;2023-06-22T02:18:15;100524.00;;;20.96;85.80
29569;BME280;16501;51.462;14.346;2023-06-22T02:20:40;100513.66;;;20.93;86.47
29569;BME280;16501;51.462;14.346;2023-06-22T02:23:06;100519.16;;;20.90;86.42
29569;BME280;16501;51.462;14.346;2023-06-22T02:25:32;100514.53;;;20.87;86.61
29569;BME280;16501;51.462;14.346;2023-06-22T02:27:58;100500.34;;;20.82;87.12
29569;BME280;16501;51.462;14.346;2023-06-22T02:30:23;100502.06;;;20.71;86.58
29569;BME280;16501;51.462;14.346;2023-06-22T02:32:48;100501.28;;;20.71;86.72
29569;BME280;16501;51.462;14.346;2023-06-22T02:35:14;100514.13;;;20.78;87.29
29569;BME280;16501;51.462;14.346;2023-06-22T02:37:39;100515.00;;;20.73;87.38
29569;BME280;16501;51.462;14.346;2023-06-22T02:40:10;100518.84;;;20.75;87.05
29569;BME280;16501;51.462;14.346;2023-06-22T02:42:36;100524.75;;;20.77;87.80
29569;BME280;16501;51.462;14.346;2023-06-22T02:45:01;100522.97;;;20.74;88.24
29569;BME280;16501;51.462;14.346;2023-06-22T02:47:27;100515.09;;;20.61;89.26
29569;BME280;16501;51.462;14.346;2023-06-22T02:49:52;100515.63;;;20.60;89.97
29569;BME280;16501;51.462;14.346;2023-06-22T02:52:17;100504.53;;;20.37;93.43
29569;BME280;16501;51.462;14.346;2023-06-22T02:54:42;100499.91;;;20.34;92.51
29569;BME280;16501;51.462;14.346;2023-06-22T02:57:10;100524.94;;;20.41;92.78
29569;BME280;16501;51.462;14.346;2023-06-22T02:59:38;100526.31;;;20.34;93.04
29569;BME280;16501;51.462;14.346;2023-06-22T03:02:08;100515.28;;;20.25;92.35
29569;BME280;16501;51.462;14.346;2023-06-22T03:04:34;100518.44;;;20.22;92.15
29569;BME280;16501;51.462;14.346;2023-06-22T03:07:00;100526.38;;;20.29;92.08
29569;BME280;16501;51.462;14.346;2023-06-22T03:09:26;100490.41;;;20.07;91.92
29569;BME280;16501;51.462;14.346;2023-06-22T03:11:53;100518.97;;;20.20;92.16
29569;BME280;16501;51.462;14.346;2023-06-22T03:14:18;100516.84;;;20.26;91.72
29569;BME280;16501;51.462;14.346;2023-06-22T03:16:44;100527.69;;;20.28;91.74
29569;BME280;16501;51.462;14.346;2023-06-22T03:19:09;100524.84;;;20.28;91.44
29569;BME280;16501;51.462;14.346;2023-06-22T03:21:34;100523.06;;;20.25;92.27
29569;BME280;16501;51.462;14.346;2023-06-22T03:23:59;100500.41;;;20.13;92.33
29569;BME280;16501;51.462;14.346;2023-06-22T03:26:25;100517.13;;;20.23;92.64
29569;BME280;16501;51.462;14.346;2023-06-22T03:28:59;100497.63;;;20.08;92.94
29569;BME280;16501;51.462;14.346;2023-06-22T03:31:24;100508.59;;;19.98;96.38
29569;BME280;16501;51.462;14.346;2023-06-22T03:33:50;100507.63;;;20.14;95.74
29569;BME280;16501;51.462;14.346;2023-06-22T03:36:16;100509.97;;;20.16;95.62
29569;BME280;16501;51.462;14.346;2023-06-22T03:38:49;100505.81;;;20.17;95.44
29569;BME280;16501;51.462;14.346;2023-06-22T03:41:14;100495.56;;;20.08;95.95
29569;BME280;16501;51.462;14.346;2023-06-22T03:43:40;100491.09;;;20.13;95.85
29569;BME280;16501;51.462;14.346;2023-06-22T03:46:05;100483.56;;;20.15;96.38
29569;BME280;16501;51.462;14.346;2023-06-22T03:48:31;100495.88;;;20.24;98.31
29569;BME280;16501;51.462;14.346;2023-06-22T03:50:56;100492.75;;;20.27;98.31
29569;BME280;16501;51.462;14.346;2023-06-22T03:53:21;100499.66;;;20.32;97.98
29569;BME280;16501;51.462;14.346;2023-06-22T03:55:51;100470.63;;;20.14;97.93
29569;BME280;16501;51.462;14.346;2023-06-22T03:58:17;100497.06;;;20.34;98.29
29569;BME280;16501;51.462;14.346;2023-06-22T04:00:44;100482.91;;;20.28;97.89
29569;BME280;16501;51.462;14.346;2023-06-22T04:03:09;100485.66;;;20.34;98.17
29569;BME280;16501;51.462;14.346;2023-06-22T04:05:34;100467.66;;;20.26;99.12
29569;BME280;16501;51.462;14.346;2023-06-22T04:08:00;100497.16;;;20.47;99.75
29569;BME280;16501;51.462;14.346;2023-06-22T04:10:25;100488.59;;;20.47;99.62
29569;BME280;16501;51.462;14.346;2023-06-22T04:12:50;100477.00;;;20.45;99.66
29569;BME280;16501;51.462;14.346;2023-06-22T04:15:15;100498.31;;;20.58;100.00
29569;BME280;16501;51.462;14.346;2023-06-22T04:17:41;100484.69;;;20.50;100.00
29569;BME280;16501;51.462;14.346;2023-06-22T04:20:06;100484.91;;;20.52;100.00
29569;BME280;16501;51.462;14.346;2023-06-22T04:22:32;100490.25;;;20.62;100.00
29569;BME280;16501;51.462;14.346;2023-06-22T04:24:57;100484.31;;;20.60;100.00
29569;BME280;16501;51.462;14.346;2023-06-22T04:27:22;100492.25;;;20.67;100.00
29569;BME280;16501;51.462;14.346;2023-06-22T04:29:48;100493.34;;;20.64;100.00
29569;BME280;16501;51.462;14.346;2023-06-22T04:32:15;100489.78;;;20.58;100.00
29569;BME280;16501;51.462;14.346;2023-06-22T04:34:40;100499.63;;;20.57;100.00
29569;BME280;16501;51.462;14.346;2023-06-22T04:37:05;100501.34;;;20.65;100.00
29569;BME280;16501;51.462;14.346;2023-06-22T04:39:31;100493.91;;;20.62;100.00
29569;BME280;16501;51.462;14.346;2023-06-22T04:41:56;100513.28;;;20.64;100.00
29569;BME280;16501;51.462;14.346;2023-06-22T04:44:25;100519.91;;;20.72;100.00
29569;BME280;16501;51.462;14.346;2023-06-22T04:46:52;100522.84;;;20.85;100.00
29569;BME280;16501;51.462;14.346;2023-06-22T04:49:19;100493.72;;;20.74;100.00
29569;BME280;16501;51.462;14.346;2023-06-22T04:51:45;100518.06;;;20.94;100.00
29569;BME280;16501;51.462;14.346;2023-06-22T04:54:10;100522.66;;;20.97;100.00
29569;BME280;16501;51.462;14.346;2023-06-22T04:56:36;100524.97;;;20.98;100.00
29569;BME280;16501;51.462;14.346;2023-06-22T04:59:02;100532.59;;;21.09;100.00
29569;BME280;16501;51.462;14.346;2023-06-22T05:01:30;100524.28;;;21.11;100.00
29569;BME280;16501;51.462;14.346;2023-06-22T05:03:57;100526.91;;;21.09;100.00
29569;BME280;16501;51.462;14.346;2023-06-22T05:06:23;100525.44;;;21.21;100.00
29569;BME280;16501;51.462;14.346;2023-06-22T05:08:52;100543.97;;;21.28;100.00
29569;BME280;16501;51.462;14.346;2023-06-22T05:11:18;100520.19;;;21.25;100.00
29569;BME280;16501;51.462;14.346;2023-06-22T05:13:43;100539.09;;;21.42;100.00
29569;BME280;16501;51.462;14.346;2023-06-22T05:16:08;100526.69;;;21.39;100.00
29569;BME280;16501;51.462;14.346;2023-06-22T05:18:34;100535.69;;;21.43;100.00
29569;BME280;16501;51.462;14.346;2023-06-22T05:21:00;100540.25;;;21.52;100.00
29569;BME280;16501;51.462;14.346;2023-06-22T05:23:25;100552.63;;;21.74;100.00
29569;BME280;16501;51.462;14.346;2023-06-22T05:25:51;100565.91;;;21.84;100.00
29569;BME280;16501;51.462;14.346;2023-06-22T05:28:16;100562.75;;;21.88;100.00
29569;BME280;16501;51.462;14.346;2023-06-22T05:30:41;100569.25;;;22.02;100.00
29569;BME280;16501;51.462;14.346;2023-06-22T05:33:06;100548.50;;;22.01;100.00
29569;BME280;16501;51.462;14.346;2023-06-22T05:35:32;100570.94;;;22.24;100.00
29569;BME280;16501;51.462;14.346;2023-06-22T05:37:57;100567.81;;;22.22;100.00
29569;BME280;16501;51.462;14.346;2023-06-22T05:40:22;100572.91;;;22.29;100.00
29569;BME280;16501;51.462;14.346;2023-06-22T05:42:48;100572.59;;;22.33;100.00
29569;BME280;16501;51.462;14.346;2023-06-22T05:45:15;100576.00;;;22.31;100.00
29569;BME280;16501;51.462;14.346;2023-06-22T05:47:41;100581.91;;;22.47;100.00
29569;BME280;16501;51.462;14.346;2023-06-22T05:50:06;100589.84;;;22.54;100.00
29569;BME280;16501;51.462;14.346;2023-06-22T05:52:34;100592.81;;;22.62;100.00
29569;BME280;16501;51.462;14.346;2023-06-22T05:54:59;100585.78;;;22.63;100.00
29569;BME280;16501;51.462;14.346;2023-06-22T05:57:24;100544.13;;;22.40;100.00
29569;BME280;16501;51.462;14.346;2023-06-22T05:59:49;100598.19;;;22.78;100.00
29569;BME280;16501;51.462;14.346;2023-06-22T06:02:15;100588.94;;;22.72;100.00
29569;BME280;16501;51.462;14.346;2023-06-22T06:04:40;100602.56;;;22.93;99.94
29569;BME280;16501;51.462;14.346;2023-06-22T06:07:05;100588.03;;;22.91;99.91
29569;BME280;16501;51.462;14.346;2023-06-22T06:09:30;100590.66;;;23.02;98.62
29569;BME280;16501;51.462;14.346;2023-06-22T06:11:56;100604.25;;;23.23;99.21
29569;BME280;16501;51.462;14.346;2023-06-22T06:14:21;100608.00;;;23.31;97.60
29569;BME280;16501;51.462;14.346;2023-06-22T06:16:48;100612.13;;;23.43;96.65
29569;BME280;16501;51.462;14.346;2023-06-22T06:19:13;100578.81;;;23.32;94.74
29569;BME280;16501;51.462;14.346;2023-06-22T06:21:39;100591.44;;;23.37;95.76
29569;BME280;16501;51.462;14.346;2023-06-22T06:24:04;100590.84;;;23.52;94.33
29569;BME280;16501;51.462;14.346;2023-06-22T06:26:29;100595.13;;;23.59;94.58
29569;BME280;16501;51.462;14.346;2023-06-22T06:28:58;100582.88;;;23.58;96.45
29569;BME280;16501;51.462;14.346;2023-06-22T06:31:24;100581.84;;;23.69;95.15
29569;BME280;16501;51.462;14.346;2023-06-22T06:33:49;100568.16;;;23.75;95.17
29569;BME280;16501;51.462;14.346;2023-06-22T06:36:14;100547.16;;;23.72;93.46
29569;BME280;16501;51.462;14.346;2023-06-22T06:38:40;100563.56;;;23.93;94.15
29569;BME280;16501;51.462;14.346;2023-06-22T06:41:05;100567.13;;;24.07;93.37
29569;BME280;16501;51.462;14.346;2023-06-22T06:43:31;100573.91;;;24.25;92.98
29569;BME280;16501;51.462;14.346;2023-06-22T06:45:56;100564.44;;;24.38;92.31
29569;BME280;16501;51.462;14.346;2023-06-22T06:48:21;100556.47;;;24.44;90.68
29569;BME280;16501;51.462;14.346;2023-06-22T06:50:46;100530.03;;;24.38;89.12
29569;BME280;16501;51.462;14.346;2023-06-22T06:53:12;100534.84;;;24.43;85.78
29569;BME280;16501;51.462;14.346;2023-06-22T06:55:37;100546.81;;;24.62;84.73
29569;BME280;16501;51.462;14.346;2023-06-22T06:58:03;100547.81;;;24.73;84.54
29569;BME280;16501;51.462;14.346;2023-06-22T07:00:32;100524.56;;;24.84;85.03
29569;BME280;16501;51.462;14.346;2023-06-22T07:02:58;100527.63;;;24.86;78.53
29569;BME280;16501;51.462;14.346;2023-06-22T07:05:23;100527.81;;;24.88;79.50
29569;BME280;16501;51.462;14.346;2023-06-22T07:07:48;100538.34;;;25.01;79.90
29569;BME280;16501;51.462;14.346;2023-06-22T07:10:14;100517.72;;;25.02;77.81
29569;BME280;16501;51.462;14.346;2023-06-22T07:12:40;100521.03;;;25.22;76.41
29569;BME280;16501;51.462;14.346;2023-06-22T07:15:07;100518.41;;;25.39;80.77
29569;BME280;16501;51.462;14.346;2023-06-22T07:17:37;100506.66;;;25.07;76.48
29569;BME280;16501;51.462;14.346;2023-06-22T07:20:03;100508.56;;;25.12;78.24
29569;BME280;16501;51.462;14.346;2023-06-22T07:22:33;100496.16;;;25.25;76.91
29569;BME280;16501;51.462;14.346;2023-06-22T07:24:58;100526.25;;;25.47;77.66
29569;BME280;16501;51.462;14.346;2023-06-22T07:27:23;100514.38;;;25.58;72.74
29569;BME280;16501;51.462;14.346;2023-06-22T07:29:49;100487.53;;;25.25;75.37
29569;BME280;16501;51.462;14.346;2023-06-22T07:32:14;100504.41;;;25.28;74.61
29569;BME280;16501;51.462;14.346;2023-06-22T07:34:40;100516.13;;;25.53;72.20
29569;BME280;16501;51.462;14.346;2023-06-22T07:37:06;100512.84;;;25.65;71.48
29569;BME280;16501;51.462;14.346;2023-06-22T07:39:31;100514.56;;;25.75;71.54
29569;BME280;16501;51.462;14.346;2023-06-22T07:41:56;100512.06;;;25.87;72.82
29569;BME280;16501;51.462;14.346;2023-06-22T07:44:22;100504.59;;;25.92;70.54
29569;BME280;16501;51.462;14.346;2023-06-22T07:46:47;100527.00;;;26.17;69.97
29569;BME280;16501;51.462;14.346;2023-06-22T07:49:12;100522.00;;;26.17;66.55
29569;BME280;16501;51.462;14.346;2023-06-22T07:51:37;100524.31;;;26.19;68.61
29569;BME280;16501;51.462;14.346;2023-06-22T07:54:03;100533.91;;;25.83;67.55
29569;BME280;16501;51.462;14.346;2023-06-22T07:56:28;100533.91;;;25.98;69.38
29569;BME280;16501;51.462;14.346;2023-06-22T07:58:53;100526.38;;;26.26;68.51
29569;BME280;16501;51.462;14.346;2023-06-22T08:01:19;100502.59;;;26.33;67.07
29569;BME280;16501;51.462;14.346;2023-06-22T08:03:50;100508.28;;;26.56;67.92
29569;BME280;16501;51.462;14.346;2023-06-22T08:06:15;100523.84;;;26.45;66.21
29569;BME280;16501;51.462;14.346;2023-06-22T08:08:41;100520.03;;;26.43;65.10
29569;BME280;16501;51.462;14.346;2023-06-22T08:11:07;100530.13;;;26.67;66.25
29569;BME280;16501;51.462;14.346;2023-06-22T08:13:32;100508.53;;;26.35;66.64
29569;BME280;16501;51.462;14.346;2023-06-22T08:15:58;100530.72;;;26.50;66.39
29569;BME280;16501;51.462;14.346;2023-06-22T08:18:23;100527.78;;;26.73;65.25
29569;BME280;16501;51.462;14.346;2023-06-22T08:20:49;100529.75;;;26.63;65.32
29569;BME280;16501;51.462;14.346;2023-06-22T08:23:14;100535.59;;;26.88;65.21
29569;BME280;16501;51.462;14.346;2023-06-22T08:25:40;100519.50;;;26.85;64.63
29569;BME280;16501;51.462;14.346;2023-06-22T08:28:05;100506.50;;;27.09;64.37
29569;BME280;16501;51.462;14.346;2023-06-22T08:30:30;100515.50;;;27.13;62.73
29569;BME280;16501;51.462;14.346;2023-06-22T08:32:56;100508.50;;;27.24;62.88
29569;BME280;16501;51.462;14.346;2023-06-22T08:35:24;100512.97;;;27.50;61.84
29569;BME280;16501;51.462;14.346;2023-06-22T08:37:50;100488.75;;;27.53;60.57
29569;BME280;16501;51.462;14.346;2023-06-22T08:40:19;100495.22;;;27.36;58.09
29569;BME280;16501;51.462;14.346;2023-06-22T08:42:45;100496.66;;;27.20;59.18
29569;BME280;16501;51.462;14.346;2023-06-22T08:45:11;100492.06;;;27.17;59.33
29569;BME280;16501;51.462;14.346;2023-06-22T08:47:37;100498.34;;;27.23;60.10
29569;BME280;16501;51.462;14.346;2023-06-22T08:50:03;100478.97;;;26.98;60.63
29569;BME280;16501;51.462;14.346;2023-06-22T08:52:28;100496.72;;;27.12;61.35
29569;BME280;16501;51.462;14.346;2023-06-22T08:54:54;100507.31;;;27.02;58.99
29569;BME280;16501;51.462;14.346;2023-06-22T08:57:19;100466.81;;;27.07;60.81
29569;BME280;16501;51.462;14.346;2023-06-22T08:59:44;100486.84;;;27.48;58.40
29569;BME280;16501;51.462;14.346;2023-06-22T09:02:09;100502.00;;;27.74;60.99
29569;BME280;16501;51.462;14.346;2023-06-22T09:04:35;100492.63;;;27.91;56.62
29569;BME280;16501;51.462;14.346;2023-06-22T09:07:03;100483.28;;;28.08;57.29
29569;BME280;16501;51.462;14.346;2023-06-22T09:09:29;100491.06;;;27.97;54.36
29569;BME280;16501;51.462;14.346;2023-06-22T09:11:54;100487.53;;;27.81;54.12
29569;BME280;16501;51.462;14.346;2023-06-22T09:14:19;100480.84;;;27.79;53.99
29569;BME280;16501;51.462;14.346;2023-06-22T09:16:44;100480.00;;;27.86;53.41
29569;BME280;16501;51.462;14.346;2023-06-22T09:19:10;100477.09;;;28.11;51.83
29569;BME280;16501;51.462;14.346;2023-06-22T09:21:35;100479.78;;;28.09;51.77
29569;BME280;16501;51.462;14.346;2023-06-22T09:24:01;100475.22;;;28.24;52.24
29569;BME280;16501;51.462;14.346;2023-06-22T09:26:26;100475.38;;;28.26;52.35
29569;BME280;16501;51.462;14.346;2023-06-22T09:28:51;100477.72;;;28.54;51.85
29569;BME280;16501;51.462;14.346;2023-06-22T09:31:17;100486.72;;;28.41;52.23
29569;BME280;16501;51.462;14.346;2023-06-22T09:33:42;100461.72;;;28.26;52.29
29569;BME280;16501;51.462;14.346;2023-06-22T09:36:07;100467.81;;;28.48;52.32
29569;BME280;16501;51.462;14.346;2023-06-22T09:38:36;100485.53;;;28.44;52.44
29569;BME280;16501;51.462;14.346;2023-06-22T09:41:02;100461.38;;;28.22;50.25
29569;BME280;16501;51.462;14.346;2023-06-22T09:43:27;100455.03;;;28.24;51.57
29569;BME280;16501;51.462;14.346;2023-06-22T09:45:53;100467.22;;;28.32;52.36
29569;BME280;16501;51.462;14.346;2023-06-22T09:48:18;100472.91;;;28.57;50.90
29569;BME280;16501;51.462;14.346;2023-06-22T09:50:43;100477.28;;;28.58;50.16
29569;BME280;16501;51.462;14.346;2023-06-22T09:53:09;100478.66;;;28.39;50.30
29569;BME280;16501;51.462;14.346;2023-06-22T09:55:34;100461.81;;;28.18;51.38
29569;BME280;16501;51.462;14.346;2023-06-22T09:57:59;100447.84;;;28.15;51.43
29569;BME280;16501;51.462;14.346;2023-06-22T10:00:24;100461.72;;;28.26;49.81
29569;BME280;16501;51.462;14.346;2023-06-22T10:02:51;100450.59;;;28.57;50.32
29569;BME280;16501;51.462;14.346;2023-06-22T10:05:17;100458.06;;;28.61;50.30
29569;BME280;16501;51.462;14.346;2023-06-22T10:07:42;100447.94;;;28.69;49.67
29569;BME280;16501;51.462;14.346;2023-06-22T10:10:09;100466.47;;;29.03;48.07
29569;BME280;16501;51.462;14.346;2023-06-22T10:12:35;100454.56;;;28.89;48.16
29569;BME280;16501;51.462;14.346;2023-06-22T10:15:00;100456.31;;;29.02;48.01
29569;BME280;16501;51.462;14.346;2023-06-22T10:17:25;100445.06;;;29.06;49.27
29569;BME280;16501;51.462;14.346;2023-06-22T10:19:50;100459.16;;;29.20;47.19
29569;BME280;16501;51.462;14.346;2023-06-22T10:22:16;100446.84;;;29.29;47.47
29569;BME280;16501;51.462;14.346;2023-06-22T10:24:41;100442.72;;;29.22;47.82
29569;BME280;16501;51.462;14.346;2023-06-22T10:27:10;100457.44;;;29.17;46.79
29569;BME280;16501;51.462;14.346;2023-06-22T10:29:35;100443.03;;;29.17;46.51
29569;BME280;16501;51.462;14.346;2023-06-22T10:32:01;100451.34;;;29.12;47.38
29569;BME280;16501;51.462;14.346;2023-06-22T10:34:26;100445.31;;;29.18;48.72
29569;BME280;16501;51.462;14.346;2023-06-22T10:36:51;100438.19;;;29.19;47.36
29569;BME280;16501;51.462;14.346;2023-06-22T10:39:16;100436.81;;;29.20;47.89
29569;BME280;16501;51.462;14.346;2023-06-22T10:41:42;100426.25;;;29.42;47.41
29569;BME280;16501;51.462;14.346;2023-06-22T10:44:08;100423.19;;;29.40;46.46
29569;BME280;16501;51.462;14.346;2023-06-22T10:46:33;100423.97;;;29.50;45.71
29569;BME280;16501;51.462;14.346;2023-06-22T10:48:58;100438.25;;;29.39;45.61
29569;BME280;16501;51.462;14.346;2023-06-22T10:51:24;100428.03;;;29.38;47.77
29569;BME280;16501;51.462;14.346;2023-06-22T10:53:50;100420.78;;;29.56;47.26
29569;BME280;16501;51.462;14.346;2023-06-22T10:56:16;100424.13;;;29.52;45.91
29569;BME280;16501;51.462;14.346;2023-06-22T10:58:43;100417.88;;;29.46;45.54
29569;BME280;16501;51.462;14.346;2023-06-22T11:01:08;100435.31;;;29.85;45.72
29569;BME280;16501;51.462;14.346;2023-06-22T11:03:33;100417.06;;;29.93;44.69
29569;BME280;16501;51.462;14.346;2023-06-22T11:05:58;100402.13;;;30.06;44.17
29569;BME280;16501;51.462;14.346;2023-06-22T11:08:24;100403.50;;;30.24;44.15
29569;BME280;16501;51.462;14.346;2023-06-22T11:10:51;100409.59;;;30.38;42.73
29569;BME280;16501;51.462;14.346;2023-06-22T11:13:16;100395.88;;;30.49;42.91
29569;BME280;16501;51.462;14.346;2023-06-22T11:15:41;100397.41;;;30.40;43.40
29569;BME280;16501;51.462;14.346;2023-06-22T11:18:06;100385.22;;;30.32;44.22
29569;BME280;16501;51.462;14.346;2023-06-22T11:20:33;100398.56;;;30.56;43.10
29569;BME280;16501;51.462;14.346;2023-06-22T11:22:59;100397.28;;;30.79;44.75
29569;BME280;16501;51.462;14.346;2023-06-22T11:25:25;100398.28;;;30.62;42.37
29569;BME280;16501;51.462;14.346;2023-06-22T11:27:51;100374.06;;;30.57;41.89
29569;BME280;16501;51.462;14.346;2023-06-22T11:30:18;100376.91;;;30.67;43.58
29569;BME280;16501;51.462;14.346;2023-06-22T11:32:43;100385.78;;;30.59;43.07
29569;BME280;16501;51.462;14.346;2023-06-22T11:35:08;100374.41;;;30.52;43.07
29569;BME280;16501;51.462;14.346;2023-06-22T11:37:34;100380.44;;;30.66;43.82
29569;BME280;16501;51.462;14.346;2023-06-22T11:39:59;100378.09;;;30.74;43.54
29569;BME280;16501;51.462;14.346;2023-06-22T11:42:24;100370.97;;;30.75;43.43
29569;BME280;16501;51.462;14.346;2023-06-22T11:44:50;100374.91;;;30.79;43.92
29569;BME280;16501;51.462;14.346;2023-06-22T11:47:15;100362.69;;;30.40;41.45
29569;BME280;16501;51.462;14.346;2023-06-22T11:49:41;100365.63;;;30.20;43.36
29569;BME280;16501;51.462;14.346;2023-06-22T11:52:06;100355.41;;;30.29;42.08
29569;BME280;16501;51.462;14.346;2023-06-22T11:54:31;100367.69;;;30.49;42.41
29569;BME280;16501;51.462;14.346;2023-06-22T11:56:56;100357.88;;;30.13;41.15
29569;BME280;16501;51.462;14.346;2023-06-22T11:59:22;100349.66;;;29.90;42.02
29569;BME280;16501;51.462;14.346;2023-06-22T12:01:47;100353.00;;;29.86;43.10
29569;BME280;16501;51.462;14.346;2023-06-22T12:04:14;100356.03;;;30.08;44.09
29569;BME280;16501;51.462;14.346;2023-06-22T12:06:39;100348.09;;;30.18;42.31
29569;BME280;16501;51.462;14.346;2023-06-22T12:09:07;100349.16;;;30.23;41.87
29569;BME280;16501;51.462;14.346;2023-06-22T12:11:32;100347.06;;;30.14;42.62
29569;BME280;16501;51.462;14.346;2023-06-22T12:13:57;100344.63;;;30.10;42.93
29569;BME280;16501;51.462;14.346;2023-06-22T12:16:27;100340.81;;;30.07;43.04
29569;BME280;16501;51.462;14.346;2023-06-22T12:18:52;100347.63;;;30.32;42.54
29569;BME280;16501;51.462;14.346;2023-06-22T12:21:17;100337.66;;;30.64;42.46
29569;BME280;16501;51.462;14.346;2023-06-22T12:23:42;100328.59;;;30.38;41.41
29569;BME280;16501;51.462;14.346;2023-06-22T12:26:08;100335.72;;;30.47;41.83
29569;BME280;16501;51.462;14.346;2023-06-22T12:28:33;100340.00;;;30.26;42.40
29569;BME280;16501;51.462;14.346;2023-06-22T12:30:58;100329.38;;;30.19;44.20
29569;BME280;16501;51.462;14.346;2023-06-22T12:33:23;100322.25;;;30.20;43.74
29569;BME280;16501;51.462;14.346;2023-06-22T12:35:48;100316.66;;;30.03;44.34